Graff, Missouri
Current Conditions -  °F | °C
As of 4:58 PM on Wednesday 22 Oct 2014 (Local Time) from KTBN Reporting Station
Clear Clear  
Wind Chill: 68°   Ceiling: Unl
Heat Index: 68°   Visibility: 10mi
Dew Point: 46°   Wind: 8mph
Humidity: 45%   Direction: 130°SE
Pressure: 30.17"   Gusts: NA
Location:  37.32°N, 92.28°W
Report Text: KTBN 222158Z AUTO 13007KT 10SM CLR 20/08 A3017 RMK AO2 SLP218 T01980075
Loading
Personal Weather Stations






























Interactive Weather Map
Tropical Storm Tracking
New forecast layout! Learn more

10-Day Weather Forecast

Advertisements
Track Severe Weather on mobile